sensor_id;sensor_type;location;lat;lon;timestamp;pressure;altitude;pressure_sealevel;temperature;humidity
50310;BME280;36207;51.850;21.698;2023-02-22T00:00:59;99653.45;;;5.01;75.91
50310;BME280;36207;51.850;21.698;2023-02-22T00:03:32;99655.17;;;4.96;75.89
50310;BME280;36207;51.850;21.698;2023-02-22T00:06:03;99661.10;;;4.91;75.78
50310;BME280;36207;51.850;21.698;2023-02-22T00:08:32;99665.22;;;4.90;75.87
50310;BME280;36207;51.850;21.698;2023-02-22T00:11:00;99665.92;;;4.88;75.99
50310;BME280;36207;51.850;21.698;2023-02-22T00:13:28;99671.93;;;4.86;75.95
50310;BME280;36207;51.850;21.698;2023-02-22T00:15:55;99673.89;;;4.83;76.05
50310;BME280;36207;51.850;21.698;2023-02-22T00:18:21;99675.95;;;4.77;75.95
50310;BME280;36207;51.850;21.698;2023-02-22T00:20:47;99674.55;;;4.71;75.90
50310;BME280;36207;51.850;21.698;2023-02-22T00:23:18;99679.41;;;4.68;75.98
50310;BME280;36207;51.850;21.698;2023-02-22T00:25:45;99682.81;;;4.65;76.16
50310;BME280;36207;51.850;21.698;2023-02-22T00:28:12;99683.17;;;4.67;76.24
50310;BME280;36207;51.850;21.698;2023-02-22T00:30:40;99684.42;;;4.69;76.40
50310;BME280;36207;51.850;21.698;2023-02-22T00:33:13;99687.55;;;4.71;76.42
50310;BME280;36207;51.850;21.698;2023-02-22T00:35:40;99685.25;;;4.69;76.32
50310;BME280;36207;51.850;21.698;2023-02-22T00:38:11;99689.55;;;4.67;76.45
50310;BME280;36207;51.850;21.698;2023-02-22T00:40:38;99686.02;;;4.69;76.47
50310;BME280;36207;51.850;21.698;2023-02-22T00:43:05;99687.85;;;4.72;76.39
50310;BME280;36207;51.850;21.698;2023-02-22T00:45:34;99690.98;;;4.74;76.44
50310;BME280;36207;51.850;21.698;2023-02-22T00:48:02;99690.63;;;4.78;76.61
50310;BME280;36207;51.850;21.698;2023-02-22T00:50:30;99693.05;;;4.82;76.53
50310;BME280;36207;51.850;21.698;2023-02-22T00:52:57;99695.54;;;4.80;76.36
50310;BME280;36207;51.850;21.698;2023-02-22T00:55:26;99697.88;;;4.74;76.34
50310;BME280;36207;51.850;21.698;2023-02-22T00:57:53;99699.16;;;4.68;76.27
50310;BME280;36207;51.850;21.698;2023-02-22T01:00:30;99703.29;;;4.64;76.34
50310;BME280;36207;51.850;21.698;2023-02-22T01:02:56;99703.20;;;4.63;76.40
50310;BME280;36207;51.850;21.698;2023-02-22T01:05:26;99707.84;;;4.58;76.43
50310;BME280;36207;51.850;21.698;2023-02-22T01:07:54;99705.49;;;4.52;76.38
50310;BME280;36207;51.850;21.698;2023-02-22T01:10:22;99713.33;;;4.43;76.42
50310;BME280;36207;51.850;21.698;2023-02-22T01:12:49;99716.27;;;4.36;76.41
50310;BME280;36207;51.850;21.698;2023-02-22T01:15:19;99718.64;;;4.30;76.35
50310;BME280;36207;51.850;21.698;2023-02-22T01:17:50;99717.16;;;4.25;76.44
50310;BME280;36207;51.850;21.698;2023-02-22T01:20:17;99723.05;;;4.23;76.49
50310;BME280;36207;51.850;21.698;2023-02-22T01:22:45;99726.48;;;4.20;76.37
50310;BME280;36207;51.850;21.698;2023-02-22T01:25:16;99728.75;;;4.15;76.47
50310;BME280;36207;51.850;21.698;2023-02-22T01:27:43;99729.49;;;4.06;76.56
50310;BME280;36207;51.850;21.698;2023-02-22T01:30:11;99730.59;;;3.99;76.40
50310;BME280;36207;51.850;21.698;2023-02-22T01:32:39;99735.64;;;3.92;76.34
50310;BME280;36207;51.850;21.698;2023-02-22T01:35:12;99734.93;;;3.88;76.35
50310;BME280;36207;51.850;21.698;2023-02-22T01:37:38;99735.54;;;3.87;76.52
50310;BME280;36207;51.850;21.698;2023-02-22T01:40:08;99736.35;;;3.90;76.48
50310;BME280;36207;51.850;21.698;2023-02-22T01:42:34;99737.79;;;3.91;76.42
50310;BME280;36207;51.850;21.698;2023-02-22T01:53:17;99746.64;;;3.70;76.44
50310;BME280;36207;51.850;21.698;2023-02-22T01:55:44;99751.17;;;3.65;76.56
50310;BME280;36207;51.850;21.698;2023-02-22T01:58:12;99755.10;;;3.62;76.54
50310;BME280;36207;51.850;21.698;2023-02-22T02:00:39;99758.19;;;3.59;76.47
50310;BME280;36207;51.850;21.698;2023-02-22T02:03:22;99757.88;;;3.59;76.40
50310;BME280;36207;51.850;21.698;2023-02-22T02:05:53;99757.40;;;3.58;76.42
50310;BME280;36207;51.850;21.698;2023-02-22T02:08:34;99757.64;;;3.54;76.41
50310;BME280;36207;51.850;21.698;2023-02-22T02:11:04;99763.13;;;3.48;76.35
50310;BME280;36207;51.850;21.698;2023-02-22T02:13:30;99764.29;;;3.43;76.36
50310;BME280;36207;51.850;21.698;2023-02-22T02:15:56;99764.64;;;3.37;76.36
50310;BME280;36207;51.850;21.698;2023-02-22T02:18:23;99767.46;;;3.35;76.41
50310;BME280;36207;51.850;21.698;2023-02-22T02:21:12;99766.86;;;3.33;76.40
50310;BME280;36207;51.850;21.698;2023-02-22T02:27:25;99772.56;;;3.33;76.39
50310;BME280;36207;51.850;21.698;2023-02-22T02:30:15;99772.81;;;3.28;76.43
50310;BME280;36207;51.850;21.698;2023-02-22T02:43:37;99788.20;;;3.05;76.57
50310;BME280;36207;51.850;21.698;2023-02-22T02:48:58;99794.98;;;2.93;76.73
50310;BME280;36207;51.850;21.698;2023-02-22T02:51:33;99793.48;;;2.86;76.80
50310;BME280;36207;51.850;21.698;2023-02-22T02:54:01;99795.23;;;2.84;76.80
50310;BME280;36207;51.850;21.698;2023-02-22T02:56:27;99797.69;;;2.86;77.00
50310;BME280;36207;51.850;21.698;2023-02-22T02:58:54;99797.06;;;2.89;77.05
50310;BME280;36207;51.850;21.698;2023-02-22T03:04:21;99802.70;;;2.95;77.16
50310;BME280;36207;51.850;21.698;2023-02-22T03:13:29;99807.50;;;3.02;77.33
50310;BME280;36207;51.850;21.698;2023-02-22T03:16:27;99809.38;;;3.07;77.50
50310;BME280;36207;51.850;21.698;2023-02-22T03:18:57;99811.30;;;3.09;77.54
50310;BME280;36207;51.850;21.698;2023-02-22T03:24:21;99820.70;;;3.04;77.49
50310;BME280;36207;51.850;21.698;2023-02-22T03:27:07;99823.05;;;3.03;77.39
50310;BME280;36207;51.850;21.698;2023-02-22T03:29:42;99821.48;;;3.05;77.59
50310;BME280;36207;51.850;21.698;2023-02-22T03:32:13;99828.78;;;3.06;77.52
50310;BME280;36207;51.850;21.698;2023-02-22T03:34:49;99825.67;;;3.07;77.59
50310;BME280;36207;51.850;21.698;2023-02-22T03:37:21;99827.36;;;3.04;77.44
50310;BME280;36207;51.850;21.698;2023-02-22T03:39:51;99831.60;;;3.00;77.49
50310;BME280;36207;51.850;21.698;2023-02-22T03:42:32;99833.38;;;2.98;77.52
50310;BME280;36207;51.850;21.698;2023-02-22T03:45:02;99832.00;;;2.98;77.63
50310;BME280;36207;51.850;21.698;2023-02-22T03:47:37;99837.98;;;2.96;77.59
50310;BME280;36207;51.850;21.698;2023-02-22T03:50:11;99842.73;;;2.96;77.72
50310;BME280;36207;51.850;21.698;2023-02-22T03:52:40;99842.95;;;2.95;77.60
50310;BME280;36207;51.850;21.698;2023-02-22T03:55:09;99845.77;;;2.95;77.60
50310;BME280;36207;51.850;21.698;2023-02-22T03:57:39;99850.25;;;2.96;77.65
50310;BME280;36207;51.850;21.698;2023-02-22T04:00:10;99851.75;;;2.99;77.79
50310;BME280;36207;51.850;21.698;2023-02-22T04:02:36;99852.98;;;3.03;77.78
50310;BME280;36207;51.850;21.698;2023-02-22T04:05:02;99851.96;;;3.06;77.79
50310;BME280;36207;51.850;21.698;2023-02-22T04:07:28;99854.24;;;3.06;77.58
50310;BME280;36207;51.850;21.698;2023-02-22T04:09:55;99853.05;;;3.08;77.74
50310;BME280;36207;51.850;21.698;2023-02-22T04:12:20;99854.02;;;3.11;77.71
50310;BME280;36207;51.850;21.698;2023-02-22T04:14:46;99849.63;;;3.15;77.79
50310;BME280;36207;51.850;21.698;2023-02-22T04:17:12;99847.86;;;3.17;77.77
50310;BME280;36207;51.850;21.698;2023-02-22T04:19:38;99851.61;;;3.21;77.68
50310;BME280;36207;51.850;21.698;2023-02-22T04:22:04;99851.12;;;3.24;77.59
50310;BME280;36207;51.850;21.698;2023-02-22T04:24:30;99855.53;;;3.26;77.65
50310;BME280;36207;51.850;21.698;2023-02-22T04:26:55;99856.77;;;3.26;77.68
50310;BME280;36207;51.850;21.698;2023-02-22T04:29:21;99860.02;;;3.27;77.72
50310;BME280;36207;51.850;21.698;2023-02-22T04:31:47;99860.57;;;3.30;77.68
50310;BME280;36207;51.850;21.698;2023-02-22T04:34:13;99864.26;;;3.34;77.72
50310;BME280;36207;51.850;21.698;2023-02-22T04:36:39;99864.80;;;3.39;77.89
50310;BME280;36207;51.850;21.698;2023-02-22T04:39:06;99866.71;;;3.41;77.81
50310;BME280;36207;51.850;21.698;2023-02-22T04:41:32;99869.60;;;3.44;77.84
50310;BME280;36207;51.850;21.698;2023-02-22T04:43:59;99870.55;;;3.45;77.83
50310;BME280;36207;51.850;21.698;2023-02-22T04:46:24;99873.88;;;3.45;77.78
50310;BME280;36207;51.850;21.698;2023-02-22T04:48:51;99876.25;;;3.46;77.64
50310;BME280;36207;51.850;21.698;2023-02-22T04:51:17;99876.98;;;3.48;77.68
50310;BME280;36207;51.850;21.698;2023-02-22T04:53:44;99878.42;;;3.49;77.72
50310;BME280;36207;51.850;21.698;2023-02-22T04:56:11;99881.16;;;3.48;77.66
50310;BME280;36207;51.850;21.698;2023-02-22T04:58:36;99883.52;;;3.46;77.68
50310;BME280;36207;51.850;21.698;2023-02-22T05:01:02;99883.77;;;3.43;77.70
50310;BME280;36207;51.850;21.698;2023-02-22T05:03:28;99885.44;;;3.40;77.70
50310;BME280;36207;51.850;21.698;2023-02-22T05:05:54;99888.32;;;3.37;77.77
50310;BME280;36207;51.850;21.698;2023-02-22T05:08:21;99891.55;;;3.34;77.85
50310;BME280;36207;51.850;21.698;2023-02-22T05:10:47;99889.98;;;3.34;78.00
50310;BME280;36207;51.850;21.698;2023-02-22T05:13:13;99889.10;;;3.34;77.83
50310;BME280;36207;51.850;21.698;2023-02-22T05:15:39;99892.27;;;3.36;77.80
50310;BME280;36207;51.850;21.698;2023-02-22T05:18:05;99896.02;;;3.38;77.82
50310;BME280;36207;51.850;21.698;2023-02-22T05:20:33;99900.38;;;3.36;77.80
50310;BME280;36207;51.850;21.698;2023-02-22T05:23:00;99904.75;;;3.32;77.71
50310;BME280;36207;51.850;21.698;2023-02-22T05:25:27;99907.48;;;3.30;77.72
50310;BME280;36207;51.850;21.698;2023-02-22T05:27:56;99914.06;;;3.29;77.75
50310;BME280;36207;51.850;21.698;2023-02-22T05:30:26;99917.20;;;3.29;77.67
50310;BME280;36207;51.850;21.698;2023-02-22T05:32:53;99924.98;;;3.29;77.80
50310;BME280;36207;51.850;21.698;2023-02-22T05:35:20;99934.76;;;3.27;77.52
50310;BME280;36207;51.850;21.698;2023-02-22T05:37:46;99939.86;;;3.19;76.96
50310;BME280;36207;51.850;21.698;2023-02-22T05:40:13;99945.05;;;3.04;76.56
50310;BME280;36207;51.850;21.698;2023-02-22T05:42:40;99946.94;;;2.92;76.72
50310;BME280;36207;51.850;21.698;2023-02-22T05:45:06;99954.55;;;2.86;76.78
50310;BME280;36207;51.850;21.698;2023-02-22T05:47:33;99959.13;;;2.77;76.97
50310;BME280;36207;51.850;21.698;2023-02-22T05:49:59;99958.64;;;2.70;77.08
50310;BME280;36207;51.850;21.698;2023-02-22T05:52:26;99959.27;;;2.63;77.02
50310;BME280;36207;51.850;21.698;2023-02-22T05:54:52;99957.91;;;2.61;76.96
50310;BME280;36207;51.850;21.698;2023-02-22T05:57:18;99959.31;;;2.60;77.04
50310;BME280;36207;51.850;21.698;2023-02-22T05:59:43;99961.42;;;2.60;77.06
50310;BME280;36207;51.850;21.698;2023-02-22T06:02:09;99965.20;;;2.59;77.07
50310;BME280;36207;51.850;21.698;2023-02-22T06:04:35;99964.21;;;2.57;77.11
50310;BME280;36207;51.850;21.698;2023-02-22T06:07:01;99964.58;;;2.54;77.14
50310;BME280;36207;51.850;21.698;2023-02-22T06:09:27;99967.33;;;2.53;77.11
50310;BME280;36207;51.850;21.698;2023-02-22T06:11:53;99972.70;;;2.52;77.20
50310;BME280;36207;51.850;21.698;2023-02-22T06:14:18;99976.23;;;2.54;77.19
50310;BME280;36207;51.850;21.698;2023-02-22T06:16:51;99976.60;;;2.56;77.25
50310;BME280;36207;51.850;21.698;2023-02-22T06:19:17;99976.83;;;2.59;77.27
50310;BME280;36207;51.850;21.698;2023-02-22T06:21:50;99978.84;;;2.62;77.10
50310;BME280;36207;51.850;21.698;2023-02-22T06:24:16;99982.92;;;2.64;77.14
50310;BME280;36207;51.850;21.698;2023-02-22T06:26:42;99985.48;;;2.64;77.09
50310;BME280;36207;51.850;21.698;2023-02-22T06:29:08;99989.35;;;2.65;77.18
50310;BME280;36207;51.850;21.698;2023-02-22T06:31:34;99996.98;;;2.64;77.06
50310;BME280;36207;51.850;21.698;2023-02-22T06:34:01;100000.69;;;2.62;76.95
50310;BME280;36207;51.850;21.698;2023-02-22T06:36:27;100008.82;;;2.61;77.14
50310;BME280;36207;51.850;21.698;2023-02-22T06:38:55;100007.23;;;2.63;77.21
50310;BME280;36207;51.850;21.698;2023-02-22T06:41:21;100009.40;;;2.67;77.19
50310;BME280;36207;51.850;21.698;2023-02-22T06:43:47;100013.23;;;2.72;77.15
50310;BME280;36207;51.850;21.698;2023-02-22T06:46:13;100018.63;;;2.74;77.15
50310;BME280;36207;51.850;21.698;2023-02-22T06:48:39;100014.23;;;2.74;77.07
50310;BME280;36207;51.850;21.698;2023-02-22T06:51:07;100014.75;;;2.74;77.03
50310;BME280;36207;51.850;21.698;2023-02-22T06:53:34;100020.47;;;2.73;77.03
50310;BME280;36207;51.850;21.698;2023-02-22T06:56:01;100021.63;;;2.72;76.94
50310;BME280;36207;51.850;21.698;2023-02-22T06:58:27;100025.77;;;2.73;76.94
50310;BME280;36207;51.850;21.698;2023-02-22T07:00:53;100034.06;;;2.75;76.92
50310;BME280;36207;51.850;21.698;2023-02-22T07:03:19;100038.55;;;2.78;77.07
50310;BME280;36207;51.850;21.698;2023-02-22T07:05:45;100039.98;;;2.82;77.06
50310;BME280;36207;51.850;21.698;2023-02-22T07:08:12;100047.08;;;2.85;76.90
50310;BME280;36207;51.850;21.698;2023-02-22T07:10:38;100047.64;;;2.87;76.86
50310;BME280;36207;51.850;21.698;2023-02-22T07:13:06;100051.45;;;2.87;76.93
50310;BME280;36207;51.850;21.698;2023-02-22T07:15:34;100054.31;;;2.89;76.84
50310;BME280;36207;51.850;21.698;2023-02-22T07:18:00;100054.98;;;2.89;76.56
50310;BME280;36207;51.850;21.698;2023-02-22T07:20:28;100054.13;;;2.87;76.40
50310;BME280;36207;51.850;21.698;2023-02-22T07:22:54;100053.30;;;2.86;76.51
50310;BME280;36207;51.850;21.698;2023-02-22T07:25:21;100057.33;;;2.85;76.23
50310;BME280;36207;51.850;21.698;2023-02-22T07:27:48;100060.73;;;2.82;76.07
50310;BME280;36207;51.850;21.698;2023-02-22T07:32:45;100062.91;;;2.79;76.22
50310;BME280;36207;51.850;21.698;2023-02-22T07:35:20;100063.08;;;2.81;76.11
50310;BME280;36207;51.850;21.698;2023-02-22T07:37:46;100058.13;;;2.85;76.25
50310;BME280;36207;51.850;21.698;2023-02-22T07:40:14;100056.45;;;2.93;76.42
50310;BME280;36207;51.850;21.698;2023-02-22T07:45:39;100054.77;;;3.04;76.03
50310;BME280;36207;51.850;21.698;2023-02-22T07:48:05;100056.67;;;3.06;75.73
50310;BME280;36207;51.850;21.698;2023-02-22T07:50:33;100057.33;;;3.07;75.87
50310;BME280;36207;51.850;21.698;2023-02-22T07:53:01;100055.83;;;3.08;75.77
50310;BME280;36207;51.850;21.698;2023-02-22T07:55:29;100057.56;;;3.09;75.57
50310;BME280;36207;51.850;21.698;2023-02-22T07:57:57;100059.13;;;3.09;75.82
50310;BME280;36207;51.850;21.698;2023-02-22T08:00:26;100060.38;;;3.09;75.39
50310;BME280;36207;51.850;21.698;2023-02-22T08:02:53;100061.09;;;3.06;75.58
50310;BME280;36207;51.850;21.698;2023-02-22T08:05:23;100062.23;;;3.10;75.59
50310;BME280;36207;51.850;21.698;2023-02-22T08:07:49;100060.73;;;3.12;75.50
50310;BME280;36207;51.850;21.698;2023-02-22T08:10:18;100064.65;;;3.12;74.81
50310;BME280;36207;51.850;21.698;2023-02-22T08:12:43;100064.36;;;3.09;75.32
50310;BME280;36207;51.850;21.698;2023-02-22T08:15:19;100067.80;;;3.12;75.50
50310;BME280;36207;51.850;21.698;2023-02-22T08:17:45;100070.02;;;3.18;75.27
50310;BME280;36207;51.850;21.698;2023-02-22T08:20:12;100071.52;;;3.23;75.10
50310;BME280;36207;51.850;21.698;2023-02-22T08:22:38;100071.73;;;3.26;74.86
50310;BME280;36207;51.850;21.698;2023-02-22T08:25:05;100072.77;;;3.31;74.76
50310;BME280;36207;51.850;21.698;2023-02-22T08:27:31;100073.55;;;3.34;74.29
50310;BME280;36207;51.850;21.698;2023-02-22T08:29:58;100073.96;;;3.35;74.72
50310;BME280;36207;51.850;21.698;2023-02-22T08:32:24;100077.58;;;3.38;74.93
50310;BME280;36207;51.850;21.698;2023-02-22T08:34:50;100078.44;;;3.43;74.69
50310;BME280;36207;51.850;21.698;2023-02-22T08:37:17;100075.17;;;3.46;74.51
50310;BME280;36207;51.850;21.698;2023-02-22T08:39:43;100077.20;;;3.47;74.52
50310;BME280;36207;51.850;21.698;2023-02-22T08:42:09;100076.89;;;3.46;74.30
50310;BME280;36207;51.850;21.698;2023-02-22T08:44:37;100078.23;;;3.45;74.13
50310;BME280;36207;51.850;21.698;2023-02-22T08:47:04;100082.25;;;3.45;74.48
50310;BME280;36207;51.850;21.698;2023-02-22T08:49:30;100085.57;;;3.48;74.28
50310;BME280;36207;51.850;21.698;2023-02-22T08:51:56;100087.63;;;3.50;74.55
50310;BME280;36207;51.850;21.698;2023-02-22T08:54:22;100090.69;;;3.54;74.49
50310;BME280;36207;51.850;21.698;2023-02-22T08:56:48;100096.04;;;3.55;74.34
50310;BME280;36207;51.850;21.698;2023-02-22T08:59:15;100100.38;;;3.57;73.80
50310;BME280;36207;51.850;21.698;2023-02-22T09:01:42;100100.93;;;3.57;73.44
50310;BME280;36207;51.850;21.698;2023-02-22T09:04:08;100103.00;;;3.55;73.22
50310;BME280;36207;51.850;21.698;2023-02-22T09:06:34;100099.87;;;3.53;73.30
50310;BME280;36207;51.850;21.698;2023-02-22T09:09:01;100100.64;;;3.54;73.70
50310;BME280;36207;51.850;21.698;2023-02-22T09:11:27;100102.65;;;3.58;73.48
50310;BME280;36207;51.850;21.698;2023-02-22T09:13:53;100105.56;;;3.58;73.62
50310;BME280;36207;51.850;21.698;2023-02-22T09:16:18;100106.38;;;3.57;73.27
50310;BME280;36207;51.850;21.698;2023-02-22T09:18:44;100108.15;;;3.57;73.04
50310;BME280;36207;51.850;21.698;2023-02-22T09:21:12;100114.14;;;3.55;72.58
50310;BME280;36207;51.850;21.698;2023-02-22T09:23:38;100118.71;;;3.51;72.49
50310;BME280;36207;51.850;21.698;2023-02-22T09:26:07;100114.51;;;3.45;72.20
50310;BME280;36207;51.850;21.698;2023-02-22T09:28:33;100116.95;;;3.37;71.46
50310;BME280;36207;51.850;21.698;2023-02-22T09:30:59;100118.43;;;3.30;71.02
50310;BME280;36207;51.850;21.698;2023-02-22T09:33:25;100118.56;;;3.24;71.00
50310;BME280;36207;51.850;21.698;2023-02-22T09:35:51;100117.29;;;3.22;71.86
50310;BME280;36207;51.850;21.698;2023-02-22T09:38:20;100120.70;;;3.26;72.11
50310;BME280;36207;51.850;21.698;2023-02-22T09:46:41;100127.80;;;3.40;72.29
50310;BME280;36207;51.850;21.698;2023-02-22T09:52:07;100123.78;;;3.47;71.38
50310;BME280;36207;51.850;21.698;2023-02-22T09:57:36;100121.06;;;3.56;71.60
50310;BME280;36207;51.850;21.698;2023-02-22T10:02:56;100121.13;;;3.68;71.92
50310;BME280;36207;51.850;21.698;2023-02-22T10:05:28;100118.64;;;3.76;72.46
50310;BME280;36207;51.850;21.698;2023-02-22T10:08:00;100117.46;;;3.82;72.03
50310;BME280;36207;51.850;21.698;2023-02-22T10:10:33;100118.77;;;3.83;71.81
50310;BME280;36207;51.850;21.698;2023-02-22T10:21:26;100116.17;;;4.03;71.70
50310;BME280;36207;51.850;21.698;2023-02-22T10:26:41;100118.16;;;4.10;71.95
50310;BME280;36207;51.850;21.698;2023-02-22T10:29:39;100120.19;;;4.15;71.86
50310;BME280;36207;51.850;21.698;2023-02-22T10:32:05;100121.19;;;4.18;71.62
50310;BME280;36207;51.850;21.698;2023-02-22T10:34:44;100122.91;;;4.20;71.32
50310;BME280;36207;51.850;21.698;2023-02-22T10:37:27;100124.63;;;4.21;71.03
50310;BME280;36207;51.850;21.698;2023-02-22T10:40:14;100124.73;;;4.22;71.11
50310;BME280;36207;51.850;21.698;2023-02-22T10:42:48;100122.88;;;4.23;71.14
50310;BME280;36207;51.850;21.698;2023-02-22T10:45:28;100126.98;;;4.22;71.08
50310;BME280;36207;51.850;21.698;2023-02-22T10:47:55;100124.31;;;4.22;71.15
50310;BME280;36207;51.850;21.698;2023-02-22T10:50:25;100124.15;;;4.22;70.68
50310;BME280;36207;51.850;21.698;2023-02-22T10:52:52;100125.52;;;4.19;70.76
50310;BME280;36207;51.850;21.698;2023-02-22T10:55:20;100124.00;;;4.18;71.00
50310;BME280;36207;51.850;21.698;2023-02-22T10:57:50;100123.20;;;4.19;70.93
50310;BME280;36207;51.850;21.698;2023-02-22T11:00:29;100123.95;;;4.20;70.96
50310;BME280;36207;51.850;21.698;2023-02-22T11:02:57;100131.74;;;4.20;70.29
50310;BME280;36207;51.850;21.698;2023-02-22T11:05:34;100132.10;;;4.16;70.07
50310;BME280;36207;51.850;21.698;2023-02-22T11:10:51;100126.39;;;4.05;70.09
50310;BME280;36207;51.850;21.698;2023-02-22T11:15:51;100125.27;;;3.97;70.13
50310;BME280;36207;51.850;21.698;2023-02-22T11:18:24;100120.80;;;3.96;69.95
50310;BME280;36207;51.850;21.698;2023-02-22T11:21:05;100121.04;;;3.95;69.86
50310;BME280;36207;51.850;21.698;2023-02-22T11:23:35;100120.02;;;3.95;70.24
50310;BME280;36207;51.850;21.698;2023-02-22T11:26:07;100116.48;;;3.95;70.49
50310;BME280;36207;51.850;21.698;2023-02-22T11:28:35;100116.42;;;3.98;70.40
50310;BME280;36207;51.850;21.698;2023-02-22T11:31:28;100117.45;;;4.00;70.42
50310;BME280;36207;51.850;21.698;2023-02-22T11:33:57;100119.14;;;4.01;70.36
50310;BME280;36207;51.850;21.698;2023-02-22T11:38:58;100116.89;;;4.03;70.20
50310;BME280;36207;51.850;21.698;2023-02-22T11:41:27;100115.64;;;4.03;70.18
50310;BME280;36207;51.850;21.698;2023-02-22T11:46:39;100115.34;;;4.02;70.05
50310;BME280;36207;51.850;21.698;2023-02-22T11:49:11;100113.75;;;4.00;69.72
50310;BME280;36207;51.850;21.698;2023-02-22T11:52:07;100114.05;;;3.99;69.63
50310;BME280;36207;51.850;21.698;2023-02-22T11:54:55;100113.20;;;4.00;69.83
50310;BME280;36207;51.850;21.698;2023-02-22T12:00:22;100113.84;;;4.03;69.51
50310;BME280;36207;51.850;21.698;2023-02-22T12:06:25;100119.04;;;4.11;69.86
50310;BME280;36207;51.850;21.698;2023-02-22T12:09:10;100122.95;;;4.12;69.58
50310;BME280;36207;51.850;21.698;2023-02-22T12:11:45;100125.53;;;4.13;69.79
50310;BME280;36207;51.850;21.698;2023-02-22T12:19:49;100123.84;;;4.10;69.67
50310;BME280;36207;51.850;21.698;2023-02-22T12:22:29;100129.91;;;4.09;69.19
50310;BME280;36207;51.850;21.698;2023-02-22T12:27:46;100129.57;;;4.00;69.74
50310;BME280;36207;51.850;21.698;2023-02-22T12:30:28;100129.81;;;3.98;69.88
50310;BME280;36207;51.850;21.698;2023-02-22T12:33:02;100134.61;;;3.95;69.88
50310;BME280;36207;51.850;21.698;2023-02-22T12:35:35;100141.20;;;3.93;69.49
50310;BME280;36207;51.850;21.698;2023-02-22T12:38:27;100142.84;;;3.88;69.60
50310;BME280;36207;51.850;21.698;2023-02-22T12:46:39;100146.70;;;3.68;69.31
50310;BME280;36207;51.850;21.698;2023-02-22T12:57:14;100155.20;;;3.59;69.49
50310;BME280;36207;51.850;21.698;2023-02-22T13:02:46;100161.46;;;3.53;69.55
50310;BME280;36207;51.850;21.698;2023-02-22T13:05:16;100165.50;;;3.49;69.38
50310;BME280;36207;51.850;21.698;2023-02-22T13:08:05;100167.13;;;3.47;69.50
50310;BME280;36207;51.850;21.698;2023-02-22T13:26:38;100177.36;;;3.30;69.38
50310;BME280;36207;51.850;21.698;2023-02-22T13:29:22;100183.15;;;3.26;69.27
50310;BME280;36207;51.850;21.698;2023-02-22T13:34:41;100189.04;;;3.19;69.62
50310;BME280;36207;51.850;21.698;2023-02-22T13:37:37;100193.80;;;3.16;69.63
50310;BME280;36207;51.850;21.698;2023-02-22T13:40:13;100196.48;;;3.11;69.56
50310;BME280;36207;51.850;21.698;2023-02-22T13:51:46;100214.54;;;2.91;69.52
50310;BME280;36207;51.850;21.698;2023-02-22T13:59:48;100220.34;;;2.76;69.07
50310;BME280;36207;51.850;21.698;2023-02-22T14:08:01;100219.54;;;2.61;68.92
50310;BME280;36207;51.850;21.698;2023-02-22T14:13:08;100219.86;;;2.55;68.76
50310;BME280;36207;51.850;21.698;2023-02-22T14:18:41;100221.23;;;2.49;68.73
50310;BME280;36207;51.850;21.698;2023-02-22T14:21:13;100220.93;;;2.46;68.85
50310;BME280;36207;51.850;21.698;2023-02-22T14:23:46;100221.60;;;2.44;68.71
50310;BME280;36207;51.850;21.698;2023-02-22T14:26:25;100226.40;;;2.39;68.41
50310;BME280;36207;51.850;21.698;2023-02-22T14:31:23;100221.35;;;2.37;68.52
50310;BME280;36207;51.850;21.698;2023-02-22T14:34:15;100223.30;;;2.37;68.50
50310;BME280;36207;51.850;21.698;2023-02-22T14:36:56;100223.20;;;2.36;68.68
50310;BME280;36207;51.850;21.698;2023-02-22T14:39:49;100225.52;;;2.35;68.61
50310;BME280;36207;51.850;21.698;2023-02-22T14:42:23;100224.73;;;2.34;68.49
50310;BME280;36207;51.850;21.698;2023-02-22T14:47:49;100230.67;;;2.32;68.53
50310;BME280;36207;51.850;21.698;2023-02-22T14:55:45;100239.41;;;2.33;68.43
50310;BME280;36207;51.850;21.698;2023-02-22T14:58:17;100239.69;;;2.29;68.22
50310;BME280;36207;51.850;21.698;2023-02-22T15:00:47;100236.08;;;2.26;68.29
50310;BME280;36207;51.850;21.698;2023-02-22T15:03:28;100238.05;;;2.25;68.68
50310;BME280;36207;51.850;21.698;2023-02-22T15:06:14;100239.71;;;2.24;68.42
50310;BME280;36207;51.850;21.698;2023-02-22T15:08:42;100240.39;;;2.20;68.19
50310;BME280;36207;51.850;21.698;2023-02-22T15:11:27;100237.50;;;2.19;68.30
50310;BME280;36207;51.850;21.698;2023-02-22T15:13:55;100240.73;;;2.18;68.39
50310;BME280;36207;51.850;21.698;2023-02-22T15:16:25;100240.33;;;2.16;68.39
50310;BME280;36207;51.850;21.698;2023-02-22T15:18:57;100238.94;;;2.14;68.26
50310;BME280;36207;51.850;21.698;2023-02-22T15:21:26;100239.01;;;2.11;68.22
50310;BME280;36207;51.850;21.698;2023-02-22T15:23:57;100241.77;;;2.07;68.34
50310;BME280;36207;51.850;21.698;2023-02-22T15:28:57;100248.64;;;2.05;68.29
50310;BME280;36207;51.850;21.698;2023-02-22T15:31:33;100250.29;;;2.04;68.35
50310;BME280;36207;51.850;21.698;2023-02-22T15:36:43;100245.56;;;2.01;68.50
50310;BME280;36207;51.850;21.698;2023-02-22T15:39:25;100251.20;;;1.98;68.34
50310;BME280;36207;51.850;21.698;2023-02-22T15:42:09;100250.67;;;1.94;68.43
50310;BME280;36207;51.850;21.698;2023-02-22T15:44:46;100251.30;;;1.93;68.52
50310;BME280;36207;51.850;21.698;2023-02-22T15:47:21;100253.16;;;1.91;68.34
50310;BME280;36207;51.850;21.698;2023-02-22T15:52:51;100252.86;;;1.84;68.35
50310;BME280;36207;51.850;21.698;2023-02-22T15:55:44;100255.30;;;1.82;68.34
50310;BME280;36207;51.850;21.698;2023-02-22T15:58:10;100257.10;;;1.81;68.38
50310;BME280;36207;51.850;21.698;2023-02-22T16:00:39;100259.95;;;1.78;68.21
50310;BME280;36207;51.850;21.698;2023-02-22T16:03:20;100264.20;;;1.75;68.22
50310;BME280;36207;51.850;21.698;2023-02-22T16:05:58;100267.25;;;1.70;68.21